Crewe, Virginia
Current Conditions -  °F | °C
As of 11:35 AM on Saturday 20 Dec 2014 (Local Time) from KW81 Reporting Station
Overcast Overcast  
Wind Chill: 34°   Ceiling: 7000
Heat Index: 34°   Visibility: 10mi
Dew Point: 23°   Wind: 0mph
Humidity: 65%   Direction: NA
Pressure: 30.31"   Gusts: NA
Location:  37.17°N, 78.12°W
Report Text: KW81 201635Z AUTO 00000KT 10SM BKN070 BKN090 OVC110 01/M05 A3031 RMK AO1 T00111049
Loading
Personal Weather Stations






























Interactive Weather Map New forecast layout! Learn more

10-Day Weather Forecast

Advertisements
Track Severe Weather on mobile